Terminal Aerodrome Forecast
Issued by NWS

Home | Current Version | Previous Version | Text Only | Print | Product List | Glossary On
Versions: 1 2 3 4 5 6 7 8 9 10 11 12 13 14 15 16 17 18 19 20 21 22 23 24 25 26 27 28 29 30 31 32 33 34 35 36 37 38
000
FTUS46 KOTX 211731
TAFCOE
TAF
KCOE 211731Z 2118/2218 24014KT P6SM FEW030 SCT100 BKN250
     FM212000 24016G26KT P6SM SCT100 BKN200
     FM220300 24007KT P6SM BKN250
     FM221100 26006KT P6SM BKN010
      AMD LTD TO CLD AND VIS=

USA.gov is the U.S. government's official web portal to all federal, state and local government web resources and services.